CEP5 weather

Janvier Airport
Janvier, Alberta, Canada

Public forecast

Using degrees Celsius for public forecast. Weather courtesy of forecast.io.

Closest aviation weather report (METAR) to Janvier Airport

Closest report is Fort McMurray Airport, 48.1 nm (89.0 km) NNW. Retrieved 2020/07/13 18:00 UTC (2 minutes ago):

CYMM 131800Z AUTO 26013G21KT 9SM FEW025 SCT039 BKN055 BKN064 14/12 A2949 RMK PCPN 08MM PAST HR SLP995 DENSITY ALT 1800FT

Closest aviation forecast (TAF) to Janvier Airport

Closest forecast is Fort McMurray Airport, 48.1 nm (89.0 km) NNW. Retrieved 2020/07/13 13:39 UTC (4 hours ago):

TAF TAF CYMM 131238Z 1313/1401 25008KT P6SM -RA SCT012 OVC025 TEMPO 1313/1317 5SM -SHRA BR BKN012 OVC025 FM131700 27015KT P6SM BKN030 TEMPO 1317/1401 5SM -SHRA BR OVC020 RMK FCST BASED ON AUTO OBS NXT FCST BY 131900Z